sensor_id;sensor_type;location;lat;lon;timestamp;temperature;humidity
11764;DHT22;5939;56.522;14.950;2023-01-31T00:01:56;2.70;99.90
11764;DHT22;5939;56.522;14.950;2023-01-31T00:04:22;2.70;99.90
11764;DHT22;5939;56.522;14.950;2023-01-31T00:06:47;2.70;99.90
11764;DHT22;5939;56.522;14.950;2023-01-31T00:09:15;2.70;99.90
11764;DHT22;5939;56.522;14.950;2023-01-31T00:11:41;2.70;99.90
11764;DHT22;5939;56.522;14.950;2023-01-31T00:14:12;2.70;99.90
11764;DHT22;5939;56.522;14.950;2023-01-31T00:16:39;2.70;99.90
11764;DHT22;5939;56.522;14.950;2023-01-31T00:19:04;2.70;99.90
11764;DHT22;5939;56.522;14.950;2023-01-31T00:21:31;2.60;99.90
11764;DHT22;5939;56.522;14.950;2023-01-31T00:23:57;2.60;99.90
11764;DHT22;5939;56.522;14.950;2023-01-31T00:28:52;2.60;99.90
11764;DHT22;5939;56.522;14.950;2023-01-31T00:31:19;2.60;99.90
11764;DHT22;5939;56.522;14.950;2023-01-31T00:33:46;2.60;99.90
11764;DHT22;5939;56.522;14.950;2023-01-31T00:36:20;2.60;99.90
11764;DHT22;5939;56.522;14.950;2023-01-31T00:38:50;2.60;99.90
11764;DHT22;5939;56.522;14.950;2023-01-31T00:41:17;2.60;99.90
11764;DHT22;5939;56.522;14.950;2023-01-31T00:43:43;2.60;99.90
11764;DHT22;5939;56.522;14.950;2023-01-31T00:46:08;2.60;99.90
11764;DHT22;5939;56.522;14.950;2023-01-31T00:48:34;2.50;99.90
11764;DHT22;5939;56.522;14.950;2023-01-31T00:51:00;2.50;99.90
11764;DHT22;5939;56.522;14.950;2023-01-31T00:53:25;2.50;99.90
11764;DHT22;5939;56.522;14.950;2023-01-31T00:55:53;2.50;99.90
11764;DHT22;5939;56.522;14.950;2023-01-31T00:58:19;2.50;99.90
11764;DHT22;5939;56.522;14.950;2023-01-31T01:00:46;2.50;99.90
11764;DHT22;5939;56.522;14.950;2023-01-31T01:03:12;2.50;99.90
11764;DHT22;5939;56.522;14.950;2023-01-31T01:05:38;2.50;99.90
11764;DHT22;5939;56.522;14.950;2023-01-31T01:08:04;2.50;99.90
11764;DHT22;5939;56.522;14.950;2023-01-31T01:10:30;2.50;99.90
11764;DHT22;5939;56.522;14.950;2023-01-31T01:12:55;2.50;99.90
11764;DHT22;5939;56.522;14.950;2023-01-31T01:15:21;2.50;99.90
11764;DHT22;5939;56.522;14.950;2023-01-31T01:17:47;2.50;99.90
11764;DHT22;5939;56.522;14.950;2023-01-31T01:20:12;2.40;99.90
11764;DHT22;5939;56.522;14.950;2023-01-31T01:22:38;2.40;99.90
11764;DHT22;5939;56.522;14.950;2023-01-31T01:25:04;2.40;99.90
11764;DHT22;5939;56.522;14.950;2023-01-31T01:27:30;2.40;99.90
11764;DHT22;5939;56.522;14.950;2023-01-31T01:29:56;2.40;99.90
11764;DHT22;5939;56.522;14.950;2023-01-31T01:32:22;2.40;99.90
11764;DHT22;5939;56.522;14.950;2023-01-31T01:34:49;2.40;99.90
11764;DHT22;5939;56.522;14.950;2023-01-31T01:37:15;2.40;99.90
11764;DHT22;5939;56.522;14.950;2023-01-31T01:39:47;2.40;99.90
11764;DHT22;5939;56.522;14.950;2023-01-31T01:42:18;2.40;99.90
11764;DHT22;5939;56.522;14.950;2023-01-31T01:49:57;2.30;99.90
11764;DHT22;5939;56.522;14.950;2023-01-31T01:52:25;2.30;99.90
11764;DHT22;5939;56.522;14.950;2023-01-31T01:54:57;2.30;99.90
11764;DHT22;5939;56.522;14.950;2023-01-31T01:57:29;2.30;99.90
11764;DHT22;5939;56.522;14.950;2023-01-31T02:00:23;2.30;99.90
11764;DHT22;5939;56.522;14.950;2023-01-31T02:02:54;2.30;99.90
11764;DHT22;5939;56.522;14.950;2023-01-31T02:05:25;2.30;99.90
11764;DHT22;5939;56.522;14.950;2023-01-31T02:07:53;2.20;99.90
11764;DHT22;5939;56.522;14.950;2023-01-31T02:10:32;2.20;99.90
11764;DHT22;5939;56.522;14.950;2023-01-31T02:12:58;2.20;99.90
11764;DHT22;5939;56.522;14.950;2023-01-31T02:15:24;2.20;99.90
11764;DHT22;5939;56.522;14.950;2023-01-31T02:17:50;2.20;99.90
11764;DHT22;5939;56.522;14.950;2023-01-31T02:26:45;2.20;99.90
11764;DHT22;5939;56.522;14.950;2023-01-31T02:29:09;2.20;99.90
11764;DHT22;5939;56.522;14.950;2023-01-31T02:31:58;2.20;99.90
11764;DHT22;5939;56.522;14.950;2023-01-31T02:34:39;2.10;99.90
11764;DHT22;5939;56.522;14.950;2023-01-31T02:40:36;2.10;99.90
11764;DHT22;5939;56.522;14.950;2023-01-31T02:51:03;2.00;99.90
11764;DHT22;5939;56.522;14.950;2023-01-31T02:53:33;2.00;99.90
11764;DHT22;5939;56.522;14.950;2023-01-31T02:58:51;2.00;99.90
11764;DHT22;5939;56.522;14.950;2023-01-31T03:01:23;2.00;99.90
11764;DHT22;5939;56.522;14.950;2023-01-31T03:03:50;2.00;99.90
11764;DHT22;5939;56.522;14.950;2023-01-31T03:09:11;2.00;99.90
11764;DHT22;5939;56.522;14.950;2023-01-31T03:12:00;2.00;99.90
11764;DHT22;5939;56.522;14.950;2023-01-31T03:17:31;1.90;99.90
11764;DHT22;5939;56.522;14.950;2023-01-31T03:22:32;1.90;99.90
11764;DHT22;5939;56.522;14.950;2023-01-31T03:24:59;1.90;99.90
11764;DHT22;5939;56.522;14.950;2023-01-31T03:27:25;1.90;99.90
11764;DHT22;5939;56.522;14.950;2023-01-31T03:29:57;1.90;99.90
11764;DHT22;5939;56.522;14.950;2023-01-31T03:32:41;1.90;99.90
11764;DHT22;5939;56.522;14.950;2023-01-31T03:35:09;1.90;99.90
11764;DHT22;5939;56.522;14.950;2023-01-31T03:40:13;1.90;99.90
11764;DHT22;5939;56.522;14.950;2023-01-31T03:43:10;1.90;99.90
11764;DHT22;5939;56.522;14.950;2023-01-31T03:45:45;1.80;99.90
11764;DHT22;5939;56.522;14.950;2023-01-31T03:48:12;1.80;99.90
11764;DHT22;5939;56.522;14.950;2023-01-31T03:50:50;1.80;99.90
11764;DHT22;5939;56.522;14.950;2023-01-31T03:53:26;1.80;99.90
11764;DHT22;5939;56.522;14.950;2023-01-31T03:56:03;1.80;99.90
11764;DHT22;5939;56.522;14.950;2023-01-31T03:58:36;1.80;99.90
11764;DHT22;5939;56.522;14.950;2023-01-31T04:01:06;1.80;99.90
11764;DHT22;5939;56.522;14.950;2023-01-31T04:03:39;1.80;99.90
11764;DHT22;5939;56.522;14.950;2023-01-31T04:06:06;1.80;99.90
11764;DHT22;5939;56.522;14.950;2023-01-31T04:08:33;1.80;99.90
11764;DHT22;5939;56.522;14.950;2023-01-31T04:10:59;1.80;99.90
11764;DHT22;5939;56.522;14.950;2023-01-31T04:13:27;1.70;99.90
11764;DHT22;5939;56.522;14.950;2023-01-31T04:15:53;1.70;99.90
11764;DHT22;5939;56.522;14.950;2023-01-31T04:18:19;1.70;99.90
11764;DHT22;5939;56.522;14.950;2023-01-31T04:20:44;1.70;99.90
11764;DHT22;5939;56.522;14.950;2023-01-31T04:23:10;1.70;99.90
11764;DHT22;5939;56.522;14.950;2023-01-31T04:25:35;1.70;99.90
11764;DHT22;5939;56.522;14.950;2023-01-31T04:28:01;1.70;99.90
11764;DHT22;5939;56.522;14.950;2023-01-31T04:30:27;1.70;99.90
11764;DHT22;5939;56.522;14.950;2023-01-31T04:32:53;1.70;99.90
11764;DHT22;5939;56.522;14.950;2023-01-31T04:35:18;1.70;99.90
11764;DHT22;5939;56.522;14.950;2023-01-31T04:37:44;1.70;99.90
11764;DHT22;5939;56.522;14.950;2023-01-31T04:40:10;1.70;99.90
11764;DHT22;5939;56.522;14.950;2023-01-31T04:42:38;1.70;99.90
11764;DHT22;5939;56.522;14.950;2023-01-31T04:45:04;1.70;99.90
11764;DHT22;5939;56.522;14.950;2023-01-31T04:47:30;1.60;99.90
11764;DHT22;5939;56.522;14.950;2023-01-31T04:49:55;1.60;99.90
11764;DHT22;5939;56.522;14.950;2023-01-31T04:52:21;1.60;99.90
11764;DHT22;5939;56.522;14.950;2023-01-31T04:54:48;1.60;99.90
11764;DHT22;5939;56.522;14.950;2023-01-31T04:57:14;1.60;99.90
11764;DHT22;5939;56.522;14.950;2023-01-31T04:59:40;1.60;99.90
11764;DHT22;5939;56.522;14.950;2023-01-31T05:02:06;1.60;99.90
11764;DHT22;5939;56.522;14.950;2023-01-31T05:04:31;1.60;99.90
11764;DHT22;5939;56.522;14.950;2023-01-31T05:06:57;1.60;99.90
11764;DHT22;5939;56.522;14.950;2023-01-31T05:09:23;1.60;99.90
11764;DHT22;5939;56.522;14.950;2023-01-31T05:11:49;1.60;99.90
11764;DHT22;5939;56.522;14.950;2023-01-31T05:14:15;1.60;99.90
11764;DHT22;5939;56.522;14.950;2023-01-31T05:16:41;1.60;99.90
11764;DHT22;5939;56.522;14.950;2023-01-31T05:19:14;1.60;99.90
11764;DHT22;5939;56.522;14.950;2023-01-31T05:21:40;1.50;99.90
11764;DHT22;5939;56.522;14.950;2023-01-31T05:24:24;1.50;99.90
11764;DHT22;5939;56.522;14.950;2023-01-31T05:26:50;1.50;99.90
11764;DHT22;5939;56.522;14.950;2023-01-31T05:29:18;1.50;99.90
11764;DHT22;5939;56.522;14.950;2023-01-31T05:31:44;1.50;99.90
11764;DHT22;5939;56.522;14.950;2023-01-31T05:34:09;1.50;99.90
11764;DHT22;5939;56.522;14.950;2023-01-31T05:36:40;1.50;99.90
11764;DHT22;5939;56.522;14.950;2023-01-31T05:39:05;1.50;99.90
11764;DHT22;5939;56.522;14.950;2023-01-31T05:41:31;1.50;99.90
11764;DHT22;5939;56.522;14.950;2023-01-31T05:43:57;1.50;99.90
11764;DHT22;5939;56.522;14.950;2023-01-31T05:46:22;1.50;99.90
11764;DHT22;5939;56.522;14.950;2023-01-31T05:48:48;1.40;99.90
11764;DHT22;5939;56.522;14.950;2023-01-31T05:51:13;1.40;99.90
11764;DHT22;5939;56.522;14.950;2023-01-31T05:53:39;1.40;99.90
11764;DHT22;5939;56.522;14.950;2023-01-31T05:56:05;1.50;99.90
11764;DHT22;5939;56.522;14.950;2023-01-31T05:58:31;1.40;99.90
11764;DHT22;5939;56.522;14.950;2023-01-31T06:00:56;1.40;99.90
11764;DHT22;5939;56.522;14.950;2023-01-31T06:03:22;1.40;99.90
11764;DHT22;5939;56.522;14.950;2023-01-31T06:05:47;1.40;99.90
11764;DHT22;5939;56.522;14.950;2023-01-31T06:08:13;1.40;99.90
11764;DHT22;5939;56.522;14.950;2023-01-31T06:10:39;1.40;99.90
11764;DHT22;5939;56.522;14.950;2023-01-31T06:13:04;1.40;99.90
11764;DHT22;5939;56.522;14.950;2023-01-31T06:15:32;1.40;99.90
11764;DHT22;5939;56.522;14.950;2023-01-31T06:17:57;1.40;99.90
11764;DHT22;5939;56.522;14.950;2023-01-31T06:20:24;1.30;99.90
11764;DHT22;5939;56.522;14.950;2023-01-31T06:22:50;1.30;99.90
11764;DHT22;5939;56.522;14.950;2023-01-31T06:25:16;1.30;99.90
11764;DHT22;5939;56.522;14.950;2023-01-31T06:27:42;1.30;99.90
11764;DHT22;5939;56.522;14.950;2023-01-31T06:30:08;1.30;99.90
11764;DHT22;5939;56.522;14.950;2023-01-31T06:32:35;1.30;99.90
11764;DHT22;5939;56.522;14.950;2023-01-31T06:35:01;1.30;99.90
11764;DHT22;5939;56.522;14.950;2023-01-31T06:37:27;1.30;99.90
11764;DHT22;5939;56.522;14.950;2023-01-31T06:39:53;1.30;99.90
11764;DHT22;5939;56.522;14.950;2023-01-31T06:42:18;1.30;99.90
11764;DHT22;5939;56.522;14.950;2023-01-31T06:44:44;1.30;99.90
11764;DHT22;5939;56.522;14.950;2023-01-31T06:47:10;1.30;99.90
11764;DHT22;5939;56.522;14.950;2023-01-31T06:49:37;1.30;99.90
11764;DHT22;5939;56.522;14.950;2023-01-31T06:52:03;1.30;99.90
11764;DHT22;5939;56.522;14.950;2023-01-31T06:54:28;1.30;99.90
11764;DHT22;5939;56.522;14.950;2023-01-31T06:56:54;1.30;99.90
11764;DHT22;5939;56.522;14.950;2023-01-31T06:59:20;1.30;99.90
11764;DHT22;5939;56.522;14.950;2023-01-31T07:01:45;1.20;99.90
11764;DHT22;5939;56.522;14.950;2023-01-31T07:04:11;1.20;99.90
11764;DHT22;5939;56.522;14.950;2023-01-31T07:06:37;1.20;99.90
11764;DHT22;5939;56.522;14.950;2023-01-31T07:09:02;1.20;99.90
11764;DHT22;5939;56.522;14.950;2023-01-31T07:11:28;1.20;99.90
11764;DHT22;5939;56.522;14.950;2023-01-31T07:13:54;1.20;99.90
11764;DHT22;5939;56.522;14.950;2023-01-31T07:16:19;1.20;99.90
11764;DHT22;5939;56.522;14.950;2023-01-31T07:18:47;1.20;99.90
11764;DHT22;5939;56.522;14.950;2023-01-31T07:21:12;1.20;99.90
11764;DHT22;5939;56.522;14.950;2023-01-31T07:23:38;1.20;99.90
11764;DHT22;5939;56.522;14.950;2023-01-31T07:26:05;1.20;99.90
11764;DHT22;5939;56.522;14.950;2023-01-31T07:28:30;1.20;99.90
11764;DHT22;5939;56.522;14.950;2023-01-31T07:31:06;1.20;99.90
11764;DHT22;5939;56.522;14.950;2023-01-31T07:33:33;1.20;99.90
11764;DHT22;5939;56.522;14.950;2023-01-31T07:36:01;1.20;99.90
11764;DHT22;5939;56.522;14.950;2023-01-31T07:38:27;1.20;99.90
11764;DHT22;5939;56.522;14.950;2023-01-31T07:40:53;1.20;99.90
11764;DHT22;5939;56.522;14.950;2023-01-31T07:43:18;1.20;99.90
11764;DHT22;5939;56.522;14.950;2023-01-31T07:45:45;1.20;99.90
11764;DHT22;5939;56.522;14.950;2023-01-31T07:48:10;1.20;99.90
11764;DHT22;5939;56.522;14.950;2023-01-31T07:50:36;1.20;99.90
11764;DHT22;5939;56.522;14.950;2023-01-31T07:53:02;1.20;99.90
11764;DHT22;5939;56.522;14.950;2023-01-31T07:55:27;1.20;99.90
11764;DHT22;5939;56.522;14.950;2023-01-31T07:57:53;1.20;99.90
11764;DHT22;5939;56.522;14.950;2023-01-31T08:00:19;1.20;99.90
11764;DHT22;5939;56.522;14.950;2023-01-31T08:03:03;1.10;99.90
11764;DHT22;5939;56.522;14.950;2023-01-31T08:05:47;1.20;99.90
11764;DHT22;5939;56.522;14.950;2023-01-31T08:08:14;1.20;99.90
11764;DHT22;5939;56.522;14.950;2023-01-31T08:10:39;1.20;99.90
11764;DHT22;5939;56.522;14.950;2023-01-31T08:13:05;1.20;99.90
11764;DHT22;5939;56.522;14.950;2023-01-31T08:15:32;1.20;99.90
11764;DHT22;5939;56.522;14.950;2023-01-31T08:17:57;1.20;99.90
11764;DHT22;5939;56.522;14.950;2023-01-31T08:20:23;1.20;99.90
11764;DHT22;5939;56.522;14.950;2023-01-31T08:22:48;1.20;99.90
11764;DHT22;5939;56.522;14.950;2023-01-31T08:25:14;1.20;99.90
11764;DHT22;5939;56.522;14.950;2023-01-31T08:27:40;1.20;99.90
11764;DHT22;5939;56.522;14.950;2023-01-31T08:30:06;1.20;99.90
11764;DHT22;5939;56.522;14.950;2023-01-31T08:32:32;1.20;99.90
11764;DHT22;5939;56.522;14.950;2023-01-31T08:34:57;1.20;99.90
11764;DHT22;5939;56.522;14.950;2023-01-31T08:37:23;1.20;99.90
11764;DHT22;5939;56.522;14.950;2023-01-31T08:39:49;1.20;99.90
11764;DHT22;5939;56.522;14.950;2023-01-31T08:42:14;1.20;99.90
11764;DHT22;5939;56.522;14.950;2023-01-31T08:44:40;1.20;99.90
11764;DHT22;5939;56.522;14.950;2023-01-31T08:47:08;1.20;99.90
11764;DHT22;5939;56.522;14.950;2023-01-31T08:49:33;1.20;99.90
11764;DHT22;5939;56.522;14.950;2023-01-31T08:52:01;1.20;99.90
11764;DHT22;5939;56.522;14.950;2023-01-31T08:54:27;1.20;99.90
11764;DHT22;5939;56.522;14.950;2023-01-31T08:56:52;1.20;99.90
11764;DHT22;5939;56.522;14.950;2023-01-31T08:59:18;1.20;99.90
11764;DHT22;5939;56.522;14.950;2023-01-31T09:01:44;1.20;99.90
11764;DHT22;5939;56.522;14.950;2023-01-31T09:04:11;1.20;99.90
11764;DHT22;5939;56.522;14.950;2023-01-31T09:06:36;1.20;99.90
11764;DHT22;5939;56.522;14.950;2023-01-31T09:09:02;1.30;99.90
11764;DHT22;5939;56.522;14.950;2023-01-31T09:11:29;1.30;99.90
11764;DHT22;5939;56.522;14.950;2023-01-31T09:13:54;1.30;99.90
11764;DHT22;5939;56.522;14.950;2023-01-31T09:16:20;1.30;99.90
11764;DHT22;5939;56.522;14.950;2023-01-31T09:18:46;1.30;99.90
11764;DHT22;5939;56.522;14.950;2023-01-31T09:21:15;1.30;99.90
11764;DHT22;5939;56.522;14.950;2023-01-31T09:23:41;1.30;99.90
11764;DHT22;5939;56.522;14.950;2023-01-31T09:26:07;1.30;99.90
11764;DHT22;5939;56.522;14.950;2023-01-31T09:28:33;1.30;99.90
11764;DHT22;5939;56.522;14.950;2023-01-31T09:31:03;1.30;99.90
11764;DHT22;5939;56.522;14.950;2023-01-31T09:33:30;1.30;99.90
11764;DHT22;5939;56.522;14.950;2023-01-31T09:35:59;1.40;99.90
11764;DHT22;5939;56.522;14.950;2023-01-31T09:38:25;1.40;99.90
11764;DHT22;5939;56.522;14.950;2023-01-31T09:40:52;1.40;99.90
11764;DHT22;5939;56.522;14.950;2023-01-31T09:43:21;1.40;99.90
11764;DHT22;5939;56.522;14.950;2023-01-31T09:45:48;1.40;99.90
11764;DHT22;5939;56.522;14.950;2023-01-31T09:48:20;1.40;99.90
11764;DHT22;5939;56.522;14.950;2023-01-31T09:50:50;1.40;99.90
11764;DHT22;5939;56.522;14.950;2023-01-31T09:53:19;1.50;99.90
11764;DHT22;5939;56.522;14.950;2023-01-31T09:56:34;1.50;99.90
11764;DHT22;5939;56.522;14.950;2023-01-31T09:59:27;1.50;99.90
11764;DHT22;5939;56.522;14.950;2023-01-31T10:02:00;1.50;99.90
11764;DHT22;5939;56.522;14.950;2023-01-31T10:04:48;1.60;99.90
11764;DHT22;5939;56.522;14.950;2023-01-31T10:07:35;1.60;99.90
11764;DHT22;5939;56.522;14.950;2023-01-31T10:10:37;1.60;99.90
11764;DHT22;5939;56.522;14.950;2023-01-31T10:13:46;1.60;99.90
11764;DHT22;5939;56.522;14.950;2023-01-31T10:16:44;1.60;99.90
11764;DHT22;5939;56.522;14.950;2023-01-31T10:19:22;1.70;99.90
11764;DHT22;5939;56.522;14.950;2023-01-31T10:22:14;1.70;99.90
11764;DHT22;5939;56.522;14.950;2023-01-31T10:24:47;1.70;99.90
11764;DHT22;5939;56.522;14.950;2023-01-31T10:27:44;1.70;99.90
11764;DHT22;5939;56.522;14.950;2023-01-31T10:30:23;1.80;99.90
11764;DHT22;5939;56.522;14.950;2023-01-31T10:32:59;1.80;99.90
11764;DHT22;5939;56.522;14.950;2023-01-31T10:35:32;1.80;99.90
11764;DHT22;5939;56.522;14.950;2023-01-31T10:38:29;1.90;99.90
11764;DHT22;5939;56.522;14.950;2023-01-31T10:41:08;1.90;99.90
11764;DHT22;5939;56.522;14.950;2023-01-31T10:43:40;2.00;99.90
11764;DHT22;5939;56.522;14.950;2023-01-31T10:46:11;2.00;99.90
11764;DHT22;5939;56.522;14.950;2023-01-31T10:48:38;2.00;99.90
11764;DHT22;5939;56.522;14.950;2023-01-31T10:56:34;2.10;99.90
11764;DHT22;5939;56.522;14.950;2023-01-31T10:59:04;2.10;99.90
11764;DHT22;5939;56.522;14.950;2023-01-31T11:01:30;2.10;99.90
11764;DHT22;5939;56.522;14.950;2023-01-31T11:03:56;2.20;99.90
11764;DHT22;5939;56.522;14.950;2023-01-31T11:06:23;2.20;99.90
11764;DHT22;5939;56.522;14.950;2023-01-31T11:09:00;2.20;99.90
11764;DHT22;5939;56.522;14.950;2023-01-31T11:11:27;2.20;99.90
11764;DHT22;5939;56.522;14.950;2023-01-31T11:16:33;2.20;99.90
11764;DHT22;5939;56.522;14.950;2023-01-31T11:19:02;2.30;99.90
11764;DHT22;5939;56.522;14.950;2023-01-31T11:21:31;2.30;99.90
11764;DHT22;5939;56.522;14.950;2023-01-31T11:24:01;2.30;99.90
11764;DHT22;5939;56.522;14.950;2023-01-31T11:26:38;2.30;99.90
11764;DHT22;5939;56.522;14.950;2023-01-31T11:29:16;2.30;99.90
11764;DHT22;5939;56.522;14.950;2023-01-31T11:31:43;2.30;99.90
11764;DHT22;5939;56.522;14.950;2023-01-31T11:36:45;2.40;99.90
11764;DHT22;5939;56.522;14.950;2023-01-31T11:39:37;2.40;99.90
11764;DHT22;5939;56.522;14.950;2023-01-31T11:44:31;2.40;99.90
11764;DHT22;5939;56.522;14.950;2023-01-31T11:46:59;2.40;99.90
11764;DHT22;5939;56.522;14.950;2023-01-31T11:49:34;2.40;99.90
11764;DHT22;5939;56.522;14.950;2023-01-31T11:54:41;2.50;99.90
11764;DHT22;5939;56.522;14.950;2023-01-31T11:57:35;2.40;99.90
11764;DHT22;5939;56.522;14.950;2023-01-31T12:00:07;2.50;99.90
11764;DHT22;5939;56.522;14.950;2023-01-31T12:02:44;2.50;99.90
11764;DHT22;5939;56.522;14.950;2023-01-31T12:05:13;2.50;99.90
11764;DHT22;5939;56.522;14.950;2023-01-31T12:07:49;2.50;99.90
11764;DHT22;5939;56.522;14.950;2023-01-31T12:10:43;2.50;99.90
11764;DHT22;5939;56.522;14.950;2023-01-31T12:13:16;2.50;99.90
11764;DHT22;5939;56.522;14.950;2023-01-31T12:16:08;2.50;99.90
11764;DHT22;5939;56.522;14.950;2023-01-31T12:18:51;2.50;99.90
11764;DHT22;5939;56.522;14.950;2023-01-31T12:26:44;2.50;99.90
11764;DHT22;5939;56.522;14.950;2023-01-31T12:40:43;2.60;99.90
11764;DHT22;5939;56.522;14.950;2023-01-31T13:02:38;2.70;99.90
11764;DHT22;5939;56.522;14.950;2023-01-31T13:08:01;2.70;99.90
11764;DHT22;5939;56.522;14.950;2023-01-31T13:10:35;2.70;99.90
11764;DHT22;5939;56.522;14.950;2023-01-31T13:13:04;2.70;99.90
11764;DHT22;5939;56.522;14.950;2023-01-31T13:15:39;2.70;99.90
11764;DHT22;5939;56.522;14.950;2023-01-31T13:18:05;2.70;99.90
11764;DHT22;5939;56.522;14.950;2023-01-31T13:20:38;2.70;99.90
11764;DHT22;5939;56.522;14.950;2023-01-31T13:23:26;2.70;99.90
11764;DHT22;5939;56.522;14.950;2023-01-31T13:26:06;2.70;99.90
11764;DHT22;5939;56.522;14.950;2023-01-31T13:28:42;2.70;99.90
11764;DHT22;5939;56.522;14.950;2023-01-31T13:31:32;2.70;99.90
11764;DHT22;5939;56.522;14.950;2023-01-31T13:34:17;2.80;99.90
11764;DHT22;5939;56.522;14.950;2023-01-31T13:36:54;2.80;99.90
11764;DHT22;5939;56.522;14.950;2023-01-31T13:39:41;2.80;99.90
11764;DHT22;5939;56.522;14.950;2023-01-31T13:42:12;2.80;99.90
11764;DHT22;5939;56.522;14.950;2023-01-31T13:44:39;2.80;99.90
11764;DHT22;5939;56.522;14.950;2023-01-31T13:50:21;2.80;99.90
11764;DHT22;5939;56.522;14.950;2023-01-31T13:52:47;2.80;99.90
11764;DHT22;5939;56.522;14.950;2023-01-31T13:55:17;2.80;99.90
11764;DHT22;5939;56.522;14.950;2023-01-31T13:57:52;2.80;99.90
11764;DHT22;5939;56.522;14.950;2023-01-31T14:00:41;2.80;99.90
11764;DHT22;5939;56.522;14.950;2023-01-31T14:03:15;2.80;99.90
11764;DHT22;5939;56.522;14.950;2023-01-31T14:08:27;2.80;99.90
11764;DHT22;5939;56.522;14.950;2023-01-31T14:10:54;2.80;99.90
11764;DHT22;5939;56.522;14.950;2023-01-31T14:15:56;2.90;99.90
11764;DHT22;5939;56.522;14.950;2023-01-31T14:18:42;2.90;99.90
11764;DHT22;5939;56.522;14.950;2023-01-31T14:23:56;2.90;99.90
11764;DHT22;5939;56.522;14.950;2023-01-31T14:26:50;2.90;99.90
11764;DHT22;5939;56.522;14.950;2023-01-31T14:29:26;2.90;99.90
11764;DHT22;5939;56.522;14.950;2023-01-31T14:31:53;2.90;99.90
11764;DHT22;5939;56.522;14.950;2023-01-31T14:34:24;2.90;99.90
11764;DHT22;5939;56.522;14.950;2023-01-31T14:40:12;2.90;99.90
11764;DHT22;5939;56.522;14.950;2023-01-31T14:51:52;2.90;99.90
11764;DHT22;5939;56.522;14.950;2023-01-31T15:00:14;2.90;99.90
11764;DHT22;5939;56.522;14.950;2023-01-31T15:05:15;2.90;99.90
11764;DHT22;5939;56.522;14.950;2023-01-31T15:08:01;2.90;99.90
11764;DHT22;5939;56.522;14.950;2023-01-31T15:18:32;2.90;99.90
11764;DHT22;5939;56.522;14.950;2023-01-31T15:21:01;2.90;99.90
11764;DHT22;5939;56.522;14.950;2023-01-31T15:23:30;2.90;99.90
11764;DHT22;5939;56.522;14.950;2023-01-31T15:25:58;2.90;99.90
11764;DHT22;5939;56.522;14.950;2023-01-31T15:28:27;2.90;99.90
11764;DHT22;5939;56.522;14.950;2023-01-31T15:31:02;2.90;99.90
11764;DHT22;5939;56.522;14.950;2023-01-31T15:33:31;2.90;99.90
11764;DHT22;5939;56.522;14.950;2023-01-31T15:36:07;2.90;99.90
11764;DHT22;5939;56.522;14.950;2023-01-31T15:38:42;2.90;99.90
11764;DHT22;5939;56.522;14.950;2023-01-31T15:43:37;2.90;99.90
11764;DHT22;5939;56.522;14.950;2023-01-31T15:46:28;2.90;99.90
11764;DHT22;5939;56.522;14.950;2023-01-31T15:48:55;2.90;99.90
11764;DHT22;5939;56.522;14.950;2023-01-31T15:51:21;2.90;99.90
11764;DHT22;5939;56.522;14.950;2023-01-31T15:53:47;2.90;99.90
11764;DHT22;5939;56.522;14.950;2023-01-31T15:56:25;2.90;99.90
11764;DHT22;5939;56.522;14.950;2023-01-31T15:58:53;2.90;99.90
11764;DHT22;5939;56.522;14.950;2023-01-31T16:01:19;2.90;99.90
11764;DHT22;5939;56.522;14.950;2023-01-31T16:03:51;2.90;99.90
11764;DHT22;5939;56.522;14.950;2023-01-31T16:06:29;2.90;99.90
11764;DHT22;5939;56.522;14.950;2023-01-31T16:08:58;2.90;99.90
11764;DHT22;5939;56.522;14.950;2023-01-31T16:11:25;2.90;99.90
11764;DHT22;5939;56.522;14.950;2023-01-31T16:13:53;2.90;99.90
11764;DHT22;5939;56.522;14.950;2023-01-31T16:16:20;2.90;99.90
11764;DHT22;5939;56.522;14.950;2023-01-31T16:18:52;2.90;99.90
11764;DHT22;5939;56.522;14.950;2023-01-31T16:21:23;2.90;99.90
11764;DHT22;5939;56.522;14.950;2023-01-31T16:24:07;2.90;99.90
11764;DHT22;5939;56.522;14.950;2023-01-31T16:26:37;2.90;99.90
11764;DHT22;5939;56.522;14.950;2023-01-31T16:29:15;2.90;99.90
11764;DHT22;5939;56.522;14.950;2023-01-31T16:31:52;2.90;99.90
11764;DHT22;5939;56.522;14.950;2023-01-31T16:34:34;2.90;99.90
11764;DHT22;5939;56.522;14.950;2023-01-31T16:37:04;3.00;99.90
11764;DHT22;5939;56.522;14.950;2023-01-31T16:40:04;2.90;99.90
11764;DHT22;5939;56.522;14.950;2023-01-31T16:42:30;2.90;99.90
11764;DHT22;5939;56.522;14.950;2023-01-31T16:44:59;2.90;99.90
11764;DHT22;5939;56.522;14.950;2023-01-31T16:52:44;2.90;99.90
11764;DHT22;5939;56.522;14.950;2023-01-31T16:55:16;2.90;99.90
11764;DHT22;5939;56.522;14.950;2023-01-31T16:57:42;2.90;99.90
11764;DHT22;5939;56.522;14.950;2023-01-31T17:02:55;3.00;99.90
11764;DHT22;5939;56.522;14.950;2023-01-31T17:05:23;3.00;99.90
11764;DHT22;5939;56.522;14.950;2023-01-31T17:07:50;3.00;99.90
11764;DHT22;5939;56.522;14.950;2023-01-31T17:10:32;3.00;99.90
11764;DHT22;5939;56.522;14.950;2023-01-31T17:13:02;3.00;99.90
11764;DHT22;5939;56.522;14.950;2023-01-31T17:15:29;3.00;99.90
11764;DHT22;5939;56.522;14.950;2023-01-31T17:17:55;3.00;99.90
11764;DHT22;5939;56.522;14.950;2023-01-31T17:20:21;3.00;99.90
11764;DHT22;5939;56.522;14.950;2023-01-31T17:22:47;3.00;99.90
11764;DHT22;5939;56.522;14.950;2023-01-31T17:25:16;3.00;99.90
11764;DHT22;5939;56.522;14.950;2023-01-31T17:27:43;3.00;99.90
11764;DHT22;5939;56.522;14.950;2023-01-31T17:30:10;3.00;99.90
11764;DHT22;5939;56.522;14.950;2023-01-31T17:32:36;3.00;99.90
11764;DHT22;5939;56.522;14.950;2023-01-31T17:35:17;3.00;99.90
11764;DHT22;5939;56.522;14.950;2023-01-31T17:37:44;3.00;99.90
11764;DHT22;5939;56.522;14.950;2023-01-31T17:40:10;3.00;99.90
11764;DHT22;5939;56.522;14.950;2023-01-31T17:42:36;3.00;99.90
11764;DHT22;5939;56.522;14.950;2023-01-31T17:45:02;3.00;99.90
11764;DHT22;5939;56.522;14.950;2023-01-31T17:47:28;3.00;99.90
11764;DHT22;5939;56.522;14.950;2023-01-31T17:49:54;3.00;99.90
11764;DHT22;5939;56.522;14.950;2023-01-31T17:52:22;3.00;99.90
11764;DHT22;5939;56.522;14.950;2023-01-31T17:54:47;3.00;99.90
11764;DHT22;5939;56.522;14.950;2023-01-31T17:57:13;3.00;99.90
11764;DHT22;5939;56.522;14.950;2023-01-31T17:59:39;3.00;99.90
11764;DHT22;5939;56.522;14.950;2023-01-31T18:02:04;3.00;99.90
11764;DHT22;5939;56.522;14.950;2023-01-31T18:04:30;3.00;99.90
11764;DHT22;5939;56.522;14.950;2023-01-31T18:06:56;3.00;99.90
11764;DHT22;5939;56.522;14.950;2023-01-31T18:09:21;3.00;99.90
11764;DHT22;5939;56.522;14.950;2023-01-31T18:11:47;3.10;99.90
11764;DHT22;5939;56.522;14.950;2023-01-31T18:14:13;3.00;99.90
11764;DHT22;5939;56.522;14.950;2023-01-31T18:16:39;3.00;99.90
11764;DHT22;5939;56.522;14.950;2023-01-31T18:19:05;3.00;99.90
11764;DHT22;5939;56.522;14.950;2023-01-31T18:21:31;3.10;99.90
11764;DHT22;5939;56.522;14.950;2023-01-31T18:23:57;3.10;99.90
11764;DHT22;5939;56.522;14.950;2023-01-31T18:26:24;3.10;99.90
11764;DHT22;5939;56.522;14.950;2023-01-31T18:28:50;3.10;99.90